createdAt,value
2023-03-30T00:00:15.255Z,-23716.58
2023-03-30T00:02:45.334Z,-23716.43
2023-03-30T00:08:14.641Z,-23716.52
2023-03-30T00:10:49.427Z,-23715.22
2023-03-30T00:13:18.198Z,-23714.53
2023-03-30T00:15:46.615Z,-23713.58
2023-03-30T00:18:14.801Z,-23712.70
2023-03-30T00:20:48.693Z,-23712.07
2023-03-30T00:23:17.018Z,-23711.60
2023-03-30T00:25:46.490Z,-23710.77
2023-03-30T00:28:14.858Z,-23709.92
2023-03-30T00:30:44.385Z,-23709.07
2023-03-30T00:33:14.346Z,-23708.28
2023-03-30T00:35:42.497Z,-23707.39
2023-03-30T00:38:12.127Z,-23706.57
2023-03-30T00:40:40.945Z,-23705.79
2023-03-30T00:43:14.289Z,-23704.99
2023-03-30T00:45:42.667Z,-23704.33
2023-03-30T00:48:17.821Z,-23703.67
2023-03-30T00:50:53.188Z,-23702.79
2023-03-30T00:53:34.617Z,-23701.81
2023-03-30T00:56:05.043Z,-23701.56
2023-03-30T00:58:33.590Z,-23701.30
2023-03-30T01:01:04.277Z,-23700.77
2023-03-30T01:03:37.839Z,-23700.17
2023-03-30T01:06:07.659Z,-23699.41
2023-03-30T01:08:36.618Z,-23698.78
2023-03-30T01:11:10.124Z,-23698.49
2023-03-30T01:13:44.728Z,-23698.43
2023-03-30T01:16:41.897Z,-23698.30
2023-03-30T01:20:09.146Z,-23697.89
2023-03-30T01:23:02.207Z,-23697.29
2023-03-30T01:25:36.857Z,-23696.66
2023-03-30T01:28:19.754Z,-23696.57
2023-03-30T01:31:00.433Z,-23696.06
2023-03-30T01:33:47.533Z,-23695.71
2023-03-30T01:36:50.227Z,-23695.43
2023-03-30T01:39:33.908Z,-23695.21
2023-03-30T01:42:05.233Z,-23694.93
2023-03-30T01:44:46.388Z,-23694.61
2023-03-30T01:47:23.548Z,-23694.51
2023-03-30T01:50:21.140Z,-23694.26
2023-03-30T01:53:03.428Z,-23694.07
2023-03-30T01:55:49.439Z,-23693.69
2023-03-30T01:58:24.288Z,-23693.25
2023-03-30T02:00:56.106Z,-23692.74
2023-03-30T02:03:31.875Z,-23692.24
2023-03-30T02:06:04.182Z,-23691.80
2023-03-30T02:08:34.689Z,-23691.51
2023-03-30T02:11:04.823Z,-23691.64
2023-03-30T02:13:33.585Z,-23691.29
2023-03-30T02:16:05.308Z,-23690.85
2023-03-30T02:18:34.045Z,-23690.03
2023-03-30T02:21:02.765Z,-23689.74
2023-03-30T02:23:35.599Z,-23689.68
2023-03-30T02:26:04.888Z,-23689.62
2023-03-30T02:28:35.390Z,-23689.58
2023-03-30T02:31:04.099Z,-23689.36
2023-03-30T02:33:53.204Z,-23689.17
2023-03-30T02:36:32.314Z,-23688.86
2023-03-30T02:39:06.158Z,-23688.42
2023-03-30T02:42:02.217Z,-23687.88
2023-03-30T02:44:56.308Z,-23687.21
2023-03-30T02:47:34.737Z,-23686.93
2023-03-30T02:50:15.437Z,-23686.55
2023-03-30T02:52:57.147Z,-23686.20
2023-03-30T02:55:34.828Z,-23685.70
2023-03-30T02:58:20.356Z,-23685.13
2023-03-30T03:01:34.063Z,-23684.46
2023-03-30T03:04:10.226Z,-23684.12
2023-03-30T03:06:45.641Z,-23683.93
2023-03-30T03:09:15.510Z,-23683.62
2023-03-30T03:11:43.772Z,-23683.27
2023-03-30T03:14:12.930Z,-23682.82
2023-03-30T03:16:41.311Z,-23682.64
2023-03-30T03:19:16.785Z,-23682.63
2023-03-30T03:21:48.414Z,-23682.26
2023-03-30T03:24:17.830Z,-23682.13
2023-03-30T03:27:12.458Z,-23681.82
2023-03-30T03:30:16.459Z,-23681.44
2023-03-30T03:32:51.710Z,-23681.15
2023-03-30T03:35:20.362Z,-23680.77
2023-03-30T03:37:49.642Z,-23680.71
2023-03-30T03:40:20.804Z,-23680.43
2023-03-30T03:42:49.324Z,-23680.17
2023-03-30T03:45:19.187Z,-23680.14
2023-03-30T03:47:56.203Z,-23680.05
2023-03-30T03:51:01.899Z,-23680.11
2023-03-30T03:53:33.702Z,-23680.18
2023-03-30T03:56:04.765Z,-23679.98
2023-03-30T03:58:33.844Z,-23679.73
2023-03-30T04:01:02.695Z,-23679.73
2023-03-30T04:03:32.560Z,-23679.63
2023-03-30T04:06:01.354Z,-23679.67
2023-03-30T04:08:30.563Z,-23679.92
2023-03-30T04:11:08.216Z,-23680.23
2023-03-30T04:13:55.819Z,-23680.58
2023-03-30T04:16:39.265Z,-23680.83
2023-03-30T04:19:27.805Z,-23680.90
2023-03-30T04:22:19.972Z,-23680.74
2023-03-30T04:25:05.678Z,-23681.18
2023-03-30T04:27:43.772Z,-23681.88
2023-03-30T04:30:24.830Z,-23682.41
2023-03-30T04:33:14.755Z,-23682.82
2023-03-30T04:35:43.194Z,-23683.39
2023-03-30T04:38:36.673Z,-23683.96
2023-03-30T04:41:26.706Z,-23684.66
2023-03-30T04:44:03.191Z,-23684.85
2023-03-30T04:47:07.305Z,-23685.54
2023-03-30T04:49:54.631Z,-23686.39
2023-03-30T04:52:41.632Z,-23687.38
2023-03-30T04:55:30.871Z,-23688.10
2023-03-30T04:58:12.112Z,-23688.61
2023-03-30T05:00:59.815Z,-23689.27
2023-03-30T05:03:57.605Z,-23690.18
2023-03-30T05:06:42.241Z,-23691.42
2023-03-30T05:09:13.303Z,-23692.33
2023-03-30T05:12:05.224Z,-23693.22
2023-03-30T05:14:39.971Z,-23694.16
2023-03-30T05:17:26.754Z,-23695.56
2023-03-30T05:20:08.748Z,-23697.23
2023-03-30T05:22:51.858Z,-23698.49
2023-03-30T05:25:36.267Z,-23699.88
2023-03-30T05:28:27.367Z,-23701.08
2023-03-30T05:31:14.374Z,-23702.22
2023-03-30T05:33:55.976Z,-23703.54
2023-03-30T05:36:46.433Z,-23704.96
2023-03-30T05:39:50.196Z,-23707.08
2023-03-30T05:42:43.985Z,-23709.29
2023-03-30T05:45:44.733Z,-23711.12
2023-03-30T05:48:34.621Z,-23712.89
2023-03-30T05:51:09.135Z,-23714.46
2023-03-30T05:54:01.784Z,-23716.07
2023-03-30T05:56:51.787Z,-23717.56
2023-03-30T05:59:47.564Z,-23719.61
2023-03-30T06:02:35.200Z,-23722.26
2023-03-30T06:05:06.789Z,-23724.57
2023-03-30T06:07:35.642Z,-23726.05
2023-03-30T06:10:06.309Z,-23727.50
2023-03-30T06:12:34.959Z,-23728.95
2023-03-30T06:15:03.803Z,-23730.49
2023-03-30T06:17:42.893Z,-23732.07
2023-03-30T06:20:12.851Z,-23734.00
2023-03-30T06:22:44.035Z,-23735.61
2023-03-30T06:25:24.076Z,-23737.40
2023-03-30T06:27:52.414Z,-23739.33
2023-03-30T06:30:20.724Z,-23741.28
2023-03-30T06:32:52.183Z,-23743.49
2023-03-30T06:35:50.707Z,-23745.45
2023-03-30T06:38:21.845Z,-23747.15
2023-03-30T06:40:51.664Z,-23748.85
2023-03-30T06:43:22.547Z,-23750.27
2023-03-30T06:46:09.612Z,-23752.00
2023-03-30T06:48:38.700Z,-23753.67
2023-03-30T06:51:25.582Z,-23755.22
2023-03-30T06:53:56.750Z,-23756.48
2023-03-30T06:56:24.945Z,-23758.06
2023-03-30T06:59:20.198Z,-23759.95
2023-03-30T07:02:26.901Z,-23761.39
2023-03-30T07:05:18.215Z,-23762.12
2023-03-30T07:08:02.761Z,-23762.41
2023-03-30T07:10:31.314Z,-23762.97
2023-03-30T07:13:00.735Z,-23764.45
2023-03-30T07:15:29.368Z,-23766.06
2023-03-30T07:17:58.013Z,-23767.95
2023-03-30T07:20:31.171Z,-23770.47
2023-03-30T07:23:14.030Z,-23771.42
2023-03-30T07:25:42.402Z,-23770.04
2023-03-30T07:28:17.869Z,-23768.80
2023-03-30T07:30:46.595Z,-23768.27
2023-03-30T07:33:15.419Z,-23768.46
2023-03-30T07:35:45.882Z,-23769.37
2023-03-30T07:38:15.091Z,-23770.66
2023-03-30T07:40:48.764Z,-23772.30
2023-03-30T07:43:17.757Z,-23773.12
2023-03-30T07:45:49.337Z,-23773.81
2023-03-30T07:48:24.296Z,-23774.60
2023-03-30T07:51:09.624Z,-23776.05
2023-03-30T07:53:42.262Z,-23777.06
2023-03-30T07:56:17.739Z,-23777.40
2023-03-30T07:58:52.033Z,-23778.09
2023-03-30T08:01:21.344Z,-23778.85
2023-03-30T08:03:52.864Z,-23779.92
2023-03-30T08:06:22.545Z,-23780.05
2023-03-30T08:08:53.640Z,-23779.73
2023-03-30T08:11:22.399Z,-23780.14
2023-03-30T08:13:52.141Z,-23781.49
2023-03-30T08:16:20.818Z,-23782.63
2023-03-30T08:18:49.131Z,-23783.20
2023-03-30T08:21:18.083Z,-23784.58
2023-03-30T08:23:46.272Z,-23786.63
2023-03-30T08:26:17.028Z,-23787.86
2023-03-30T08:28:45.252Z,-23788.80
2023-03-30T08:31:13.382Z,-23789.78
2023-03-30T08:33:41.821Z,-23790.31
2023-03-30T08:36:10.040Z,-23791.42
2023-03-30T08:38:42.926Z,-23793.02
2023-03-30T08:41:28.136Z,-23795.20
2023-03-30T08:44:01.005Z,-23796.93
2023-03-30T08:46:29.474Z,-23798.03
2023-03-30T08:48:59.943Z,-23800.61
2023-03-30T08:51:37.114Z,-23803.98
2023-03-30T08:54:06.946Z,-23805.89
2023-03-30T08:56:38.437Z,-23807.22
2023-03-30T08:59:15.509Z,-23809.70
2023-03-30T09:02:22.526Z,-23811.81
2023-03-30T09:05:05.578Z,-23813.23
2023-03-30T09:07:39.928Z,-23814.64
2023-03-30T09:10:12.189Z,-23815.65
2023-03-30T09:12:48.074Z,-23818.04
2023-03-30T09:15:32.108Z,-23821.47
2023-03-30T09:18:07.422Z,-23824.21
2023-03-30T09:20:36.450Z,-23826.50
2023-03-30T09:23:04.728Z,-23828.61
2023-03-30T09:25:45.001Z,-23830.18
2023-03-30T09:28:24.538Z,-23830.34
2023-03-30T09:30:54.959Z,-23831.44
2023-03-30T09:33:35.733Z,-23833.26
2023-03-30T09:36:18.969Z,-23834.80
2023-03-30T09:38:50.473Z,-23837.22
2023-03-30T09:41:50.019Z,-23838.36
2023-03-30T09:44:34.087Z,-23838.70
2023-03-30T09:47:02.341Z,-23839.17
2023-03-30T09:49:30.693Z,-23840.87
2023-03-30T09:52:04.072Z,-23843.92
2023-03-30T09:54:40.095Z,-23846.59
2023-03-30T09:57:31.669Z,-23848.63
2023-03-30T10:00:01.527Z,-23852.21
2023-03-30T10:02:40.843Z,-23855.48
2023-03-30T10:05:17.386Z,-23856.37
2023-03-30T10:07:45.684Z,-23856.43
2023-03-30T10:10:29.323Z,-23857.21
2023-03-30T10:13:04.745Z,-23859.88
2023-03-30T10:15:33.083Z,-23862.39
2023-03-30T10:18:02.779Z,-23864.31
2023-03-30T10:20:36.698Z,-23865.16
2023-03-30T10:23:05.791Z,-23864.85
2023-03-30T10:25:35.030Z,-23864.41
2023-03-30T10:28:04.976Z,-23864.85
2023-03-30T10:30:33.364Z,-23865.66
2023-03-30T10:33:02.229Z,-23866.98
2023-03-30T10:35:36.088Z,-23868.30
2023-03-30T10:38:05.256Z,-23868.83
2023-03-30T10:40:38.625Z,-23869.87
2023-03-30T10:43:12.818Z,-23870.88
2023-03-30T10:45:46.050Z,-23873.36
2023-03-30T10:48:36.281Z,-23876.12
2023-03-30T10:51:28.729Z,-23879.14
2023-03-30T10:54:11.750Z,-23880.67
2023-03-30T10:56:45.192Z,-23882.43
2023-03-30T10:59:35.064Z,-23883.78
2023-03-30T11:02:22.520Z,-23884.06
2023-03-30T11:05:09.960Z,-23884.84
2023-03-30T11:07:48.023Z,-23886.92
2023-03-30T11:10:18.258Z,-23889.40
2023-03-30T11:12:52.773Z,-23890.93
2023-03-30T11:15:31.487Z,-23892.50
2023-03-30T11:18:01.651Z,-23893.29
2023-03-30T11:20:56.683Z,-23893.95
2023-03-30T11:23:42.834Z,-23895.86
2023-03-30T11:26:12.843Z,-23897.34
2023-03-30T11:29:28.676Z,-23897.52
2023-03-30T11:31:59.868Z,-23899.91
2023-03-30T11:34:43.356Z,-23902.36
2023-03-30T11:37:30.001Z,-23904.45
2023-03-30T11:40:24.252Z,-23905.12
2023-03-30T11:42:54.076Z,-23905.65
2023-03-30T11:45:34.463Z,-23905.62
2023-03-30T11:48:20.070Z,-23905.33
2023-03-30T11:51:00.529Z,-23905.15
2023-03-30T11:53:48.767Z,-23906.78
2023-03-30T11:56:27.980Z,-23908.82
2023-03-30T11:59:07.192Z,-23907.88
2023-03-30T12:01:42.505Z,-23906.46
2023-03-30T12:04:11.954Z,-23906.21
2023-03-30T12:06:41.380Z,-23906.59
2023-03-30T12:09:31.378Z,-23907.12
2023-03-30T12:12:41.402Z,-23907.31
2023-03-30T12:15:31.482Z,-23907.59
2023-03-30T12:18:11.483Z,-23908.63
2023-03-30T12:21:17.214Z,-23909.76
2023-03-30T12:24:12.409Z,-23911.80
2023-03-30T12:26:42.552Z,-23912.67
2023-03-30T12:31:56.094Z,-23914.55
2023-03-30T12:34:26.444Z,-23915.12
2023-03-30T12:37:23.729Z,-23915.81
2023-03-30T12:40:06.966Z,-23916.37
2023-03-30T12:42:46.532Z,-23917.31
2023-03-30T12:45:24.141Z,-23917.59
2023-03-30T12:48:14.515Z,-23917.31
2023-03-30T12:51:11.818Z,-23917.25
2023-03-30T12:53:56.175Z,-23918.25
2023-03-30T12:56:55.428Z,-23919.07
2023-03-30T13:00:00.881Z,-23919.92
2023-03-30T13:02:38.774Z,-23920.89
2023-03-30T13:05:25.049Z,-23922.21
2023-03-30T13:07:55.366Z,-23923.50
2023-03-30T13:10:29.631Z,-23925.25
2023-03-30T13:12:58.632Z,-23925.50
2023-03-30T13:15:32.024Z,-23925.47
2023-03-30T13:18:02.811Z,-23925.31
2023-03-30T13:20:47.241Z,-23925.16
2023-03-30T13:23:19.956Z,-23925.81
2023-03-30T13:26:02.412Z,-23927.70
2023-03-30T13:29:10.381Z,-23929.29
2023-03-30T13:31:46.204Z,-23929.26
2023-03-30T13:34:16.997Z,-23930.48
2023-03-30T13:37:05.422Z,-23932.55
2023-03-30T13:39:43.057Z,-23933.84
2023-03-30T13:42:23.167Z,-23933.52
2023-03-30T13:45:24.900Z,-23932.39
2023-03-30T13:48:04.695Z,-23932.30
2023-03-30T13:50:34.811Z,-23932.77
2023-03-30T13:53:04.622Z,-23934.62
2023-03-30T13:55:44.622Z,-23936.72
2023-03-30T13:58:21.960Z,-23937.13
2023-03-30T14:00:52.061Z,-23937.60
2023-03-30T14:03:35.553Z,-23938.44
2023-03-30T14:06:13.689Z,-23938.97
2023-03-30T14:08:45.261Z,-23940.01
2023-03-30T14:11:22.542Z,-23940.85
2023-03-30T14:13:52.585Z,-23941.26
2023-03-30T14:16:26.177Z,-23941.98
2023-03-30T14:19:19.840Z,-23942.05
2023-03-30T14:21:48.695Z,-23943.02
2023-03-30T14:24:18.781Z,-23943.36
2023-03-30T14:26:47.633Z,-23943.39
2023-03-30T14:29:28.570Z,-23943.55
2023-03-30T14:32:10.293Z,-23944.49
2023-03-30T14:34:39.771Z,-23944.80
2023-03-30T14:37:08.295Z,-23944.39
2023-03-30T14:39:47.478Z,-23943.95
2023-03-30T14:42:20.932Z,-23943.61
2023-03-30T14:44:52.205Z,-23943.71
2023-03-30T14:47:22.855Z,-23943.39
2023-03-30T14:49:52.054Z,-23943.48
2023-03-30T14:52:22.121Z,-23944.02
2023-03-30T14:55:04.807Z,-23945.21
2023-03-30T14:57:38.631Z,-23945.11
2023-03-30T15:00:21.321Z,-23944.39
2023-03-30T15:03:00.074Z,-23944.46
2023-03-30T15:05:40.746Z,-23944.64
2023-03-30T15:08:27.907Z,-23944.49
2023-03-30T15:11:12.927Z,-23944.52
2023-03-30T15:13:47.248Z,-23944.55
2023-03-30T15:16:21.723Z,-23944.58
2023-03-30T15:18:55.854Z,-23944.43
2023-03-30T15:21:34.176Z,-23944.62
2023-03-30T15:24:02.432Z,-23945.30
2023-03-30T15:26:31.104Z,-23946.46
2023-03-30T15:29:15.547Z,-23947.34
2023-03-30T15:31:45.655Z,-23947.43
2023-03-30T15:34:17.244Z,-23946.90
2023-03-30T15:36:52.388Z,-23946.65
2023-03-30T15:39:34.339Z,-23946.77
2023-03-30T15:42:04.607Z,-23946.30
2023-03-30T15:44:37.298Z,-23945.27
2023-03-30T15:47:10.014Z,-23944.65
2023-03-30T15:49:42.914Z,-23943.77
2023-03-30T15:52:18.833Z,-23942.89
2023-03-30T15:54:50.712Z,-23942.11
2023-03-30T15:57:29.246Z,-23941.73
2023-03-30T16:00:02.235Z,-23941.07
2023-03-30T16:02:40.084Z,-23940.20
2023-03-30T16:05:17.027Z,-23939.47
2023-03-30T16:07:45.395Z,-23938.35
2023-03-30T16:10:14.806Z,-23936.69
2023-03-30T16:12:45.898Z,-23935.50
2023-03-30T16:15:15.362Z,-23934.65
2023-03-30T16:17:47.688Z,-23933.46
2023-03-30T16:20:18.325Z,-23931.93
2023-03-30T16:22:49.929Z,-23930.73
2023-03-30T16:25:21.344Z,-23929.95
2023-03-30T16:27:51.302Z,-23929.17
2023-03-30T16:30:30.868Z,-23928.54
2023-03-30T16:33:01.286Z,-23928.13
2023-03-30T16:35:29.636Z,-23927.26
2023-03-30T16:37:58.303Z,-23926.22
2023-03-30T16:40:42.212Z,-23925.25
2023-03-30T16:43:11.864Z,-23924.25
2023-03-30T16:45:40.564Z,-23923.37
2023-03-30T16:48:12.328Z,-23922.55
2023-03-30T16:50:47.712Z,-23921.83
2023-03-30T16:53:16.240Z,-23921.08
2023-03-30T16:55:44.411Z,-23920.46
2023-03-30T16:58:14.430Z,-23920.07
2023-03-30T17:00:50.418Z,-23919.44
2023-03-30T17:03:19.543Z,-23918.57
2023-03-30T17:05:49.710Z,-23918.03
2023-03-30T17:08:21.643Z,-23917.47
2023-03-30T17:10:50.043Z,-23917.03
2023-03-30T17:13:28.607Z,-23916.59
2023-03-30T17:16:16.715Z,-23915.93
2023-03-30T17:18:47.595Z,-23914.99
2023-03-30T17:21:18.406Z,-23914.40
2023-03-30T17:23:48.019Z,-23914.24
2023-03-30T17:26:17.691Z,-23914.12
2023-03-30T17:28:46.120Z,-23913.93
2023-03-30T17:31:21.329Z,-23913.33
2023-03-30T17:33:50.185Z,-23912.80
2023-03-30T17:36:25.493Z,-23912.27
2023-03-30T17:38:59.985Z,-23911.67
2023-03-30T17:41:28.097Z,-23911.14
2023-03-30T17:43:56.227Z,-23910.32
2023-03-30T17:46:24.334Z,-23909.54
2023-03-30T17:48:52.600Z,-23908.94
2023-03-30T17:51:20.749Z,-23908.28
2023-03-30T17:53:49.092Z,-23907.53
2023-03-30T17:56:19.991Z,-23906.78
2023-03-30T17:58:49.755Z,-23906.09
2023-03-30T18:01:18.123Z,-23905.33
2023-03-30T18:03:47.725Z,-23904.24
2023-03-30T18:06:16.430Z,-23903.33
2023-03-30T18:08:44.546Z,-23902.61
2023-03-30T18:11:12.675Z,-23902.11
2023-03-30T18:13:41.381Z,-23901.69
2023-03-30T18:16:11.062Z,-23901.57
2023-03-30T18:18:39.854Z,-23900.85
2023-03-30T18:21:09.619Z,-23900.60
2023-03-30T18:23:43.895Z,-23899.97
2023-03-30T18:26:13.062Z,-23899.59
2023-03-30T18:28:44.070Z,-23898.90
2023-03-30T18:31:12.948Z,-23898.59
2023-03-30T18:33:41.416Z,-23897.90
2023-03-30T18:36:13.454Z,-23897.84
2023-03-30T18:38:42.457Z,-23897.80
2023-03-30T18:41:13.007Z,-23897.43
2023-03-30T18:43:41.407Z,-23897.18
2023-03-30T18:46:11.271Z,-23897.05
2023-03-30T18:48:41.959Z,-23896.52
2023-03-30T18:51:11.830Z,-23896.02
2023-03-30T18:53:42.741Z,-23895.33
2023-03-30T18:56:11.697Z,-23894.70
2023-03-30T18:58:42.416Z,-23894.57
2023-03-30T19:01:16.071Z,-23893.88
2023-03-30T19:03:45.354Z,-23893.41
2023-03-30T19:06:16.622Z,-23892.97
2023-03-30T19:08:44.903Z,-23892.54
2023-03-30T19:11:15.768Z,-23892.16
2023-03-30T19:13:43.940Z,-23891.78
2023-03-30T19:16:13.829Z,-23891.50
2023-03-30T19:18:43.246Z,-23891.06
2023-03-30T19:21:16.771Z,-23890.68
2023-03-30T19:23:44.951Z,-23890.56
2023-03-30T19:26:13.284Z,-23890.59
2023-03-30T19:28:41.546Z,-23890.09
2023-03-30T19:31:16.499Z,-23890.05
2023-03-30T19:33:45.098Z,-23889.96
2023-03-30T19:36:14.316Z,-23890.15
2023-03-30T19:38:44.224Z,-23890.27
2023-03-30T19:41:12.716Z,-23890.46
2023-03-30T19:43:42.391Z,-23890.62
2023-03-30T19:46:10.586Z,-23890.68
2023-03-30T19:48:38.755Z,-23889.77
2023-03-30T19:51:07.170Z,-23889.02
2023-03-30T19:53:38.332Z,-23888.93
2023-03-30T19:56:10.453Z,-23889.09
2023-03-30T19:58:38.954Z,-23889.46
2023-03-30T20:01:08.297Z,-23889.90
2023-03-30T20:03:37.678Z,-23890.50
2023-03-30T20:06:10.033Z,-23890.93
2023-03-30T20:08:39.630Z,-23891.44
2023-03-30T20:11:08.985Z,-23891.84
2023-03-30T20:13:37.366Z,-23892.16
2023-03-30T20:16:06.235Z,-23892.35
2023-03-30T20:18:35.779Z,-23892.79
2023-03-30T20:21:04.646Z,-23893.22
2023-03-30T20:23:33.501Z,-23893.92
2023-03-30T20:26:04.578Z,-23894.51
2023-03-30T20:28:34.176Z,-23895.04
2023-03-30T20:31:03.068Z,-23895.55
2023-03-30T20:33:35.050Z,-23895.86
2023-03-30T20:36:03.336Z,-23895.89
2023-03-30T20:38:31.860Z,-23896.02
2023-03-30T20:41:04.648Z,-23895.48
2023-03-30T20:43:38.393Z,-23894.95
2023-03-30T20:46:14.223Z,-23894.54
2023-03-30T20:48:42.941Z,-23893.79
2023-03-30T20:51:13.465Z,-23893.54
2023-03-30T20:53:42.588Z,-23893.70
2023-03-30T20:56:11.129Z,-23894.32
2023-03-30T20:58:39.690Z,-23894.17
2023-03-30T21:01:28.402Z,-23894.17
2023-03-30T21:03:58.831Z,-23894.29
2023-03-30T21:06:28.522Z,-23894.70
2023-03-30T21:08:58.840Z,-23895.14
2023-03-30T21:11:27.937Z,-23895.70
2023-03-30T21:14:02.238Z,-23895.64
2023-03-30T21:16:31.789Z,-23895.36
2023-03-30T21:19:00.974Z,-23894.86
2023-03-30T21:21:31.530Z,-23894.61
2023-03-30T21:24:01.793Z,-23894.92
2023-03-30T21:26:30.572Z,-23894.54
2023-03-30T21:28:58.820Z,-23894.67
2023-03-30T21:31:28.537Z,-23894.70
2023-03-30T21:33:57.804Z,-23894.61
2023-03-30T21:36:26.090Z,-23894.67
2023-03-30T21:38:56.236Z,-23895.26
2023-03-30T21:41:26.320Z,-23896.30
2023-03-30T21:43:54.772Z,-23897.43
2023-03-30T21:46:24.132Z,-23898.69
2023-03-30T21:48:55.954Z,-23898.94
2023-03-30T21:51:29.087Z,-23898.65
2023-03-30T21:53:59.452Z,-23898.87
2023-03-30T21:56:29.560Z,-23898.84
2023-03-30T21:58:58.949Z,-23898.65
2023-03-30T22:01:28.264Z,-23897.68
2023-03-30T22:03:56.978Z,-23896.89
2023-03-30T22:06:25.393Z,-23896.24
2023-03-30T22:08:53.800Z,-23895.52
2023-03-30T22:11:23.662Z,-23895.11
2023-03-30T22:13:55.790Z,-23894.61
2023-03-30T22:16:28.843Z,-23893.66
2023-03-30T22:19:13.233Z,-23893.07
2023-03-30T22:21:41.485Z,-23893.07
2023-03-30T22:24:11.271Z,-23893.22
2023-03-30T22:26:40.838Z,-23893.44
2023-03-30T22:29:09.076Z,-23893.32
2023-03-30T22:31:41.521Z,-23893.22
2023-03-30T22:34:10.668Z,-23892.97
2023-03-30T22:36:39.268Z,-23892.72
2023-03-30T22:39:07.519Z,-23892.32
2023-03-30T22:41:36.411Z,-23891.38
2023-03-30T22:44:04.852Z,-23889.96
2023-03-30T22:46:34.633Z,-23888.17
2023-03-30T22:49:03.867Z,-23886.57
2023-03-30T22:51:34.058Z,-23885.44
2023-03-30T22:54:02.484Z,-23884.13
2023-03-30T22:56:32.295Z,-23883.06
2023-03-30T22:59:01.476Z,-23882.30
2023-03-30T23:01:32.416Z,-23881.71
2023-03-30T23:04:03.393Z,-23881.14
2023-03-30T23:06:33.913Z,-23880.73
2023-03-30T23:09:03.747Z,-23880.51
2023-03-30T23:11:34.499Z,-23880.23
2023-03-30T23:14:05.528Z,-23880.04
2023-03-30T23:16:34.378Z,-23879.64
2023-03-30T23:19:04.668Z,-23879.01
2023-03-30T23:21:36.127Z,-23878.57
2023-03-30T23:24:10.827Z,-23878.07
2023-03-30T23:26:39.458Z,-23877.69
2023-03-30T23:29:07.627Z,-23877.72
2023-03-30T23:31:36.674Z,-23878.41
2023-03-30T23:34:05.239Z,-23879.07
2023-03-30T23:36:35.031Z,-23879.92
2023-03-30T23:39:03.396Z,-23880.04
2023-03-30T23:41:31.949Z,-23879.95
2023-03-30T23:44:00.138Z,-23879.98
2023-03-30T23:46:29.168Z,-23880.14
2023-03-30T23:48:57.431Z,-23880.23
2023-03-30T23:51:25.921Z,-23880.45
2023-03-30T23:53:57.047Z,-23880.32
2023-03-30T23:56:27.822Z,-23879.95
2023-03-30T23:58:56.971Z,-23879.70
